sensor_id;sensor_type;location;lat;lon;timestamp;temperature;humidity
6672;DHT22;3372;48.690;12.362;2023-09-19T00:01:23;18.40;73.30
6672;DHT22;3372;48.690;12.362;2023-09-19T00:03:49;18.30;73.90
6672;DHT22;3372;48.690;12.362;2023-09-19T00:06:15;18.40;73.70
6672;DHT22;3372;48.690;12.362;2023-09-19T00:08:41;18.30;73.30
6672;DHT22;3372;48.690;12.362;2023-09-19T00:11:09;18.40;73.40
6672;DHT22;3372;48.690;12.362;2023-09-19T00:13:36;18.40;73.40
6672;DHT22;3372;48.690;12.362;2023-09-19T00:16:09;18.40;73.40
6672;DHT22;3372;48.690;12.362;2023-09-19T00:18:36;18.40;72.90
6672;DHT22;3372;48.690;12.362;2023-09-19T00:21:03;18.40;73.00
6672;DHT22;3372;48.690;12.362;2023-09-19T00:23:30;18.40;72.20
6672;DHT22;3372;48.690;12.362;2023-09-19T00:26:00;18.40;72.20
6672;DHT22;3372;48.690;12.362;2023-09-19T00:28:26;18.40;73.70
6672;DHT22;3372;48.690;12.362;2023-09-19T00:30:52;18.40;73.10
6672;DHT22;3372;48.690;12.362;2023-09-19T00:33:20;18.40;72.70
6672;DHT22;3372;48.690;12.362;2023-09-19T00:38:14;18.40;73.20
6672;DHT22;3372;48.690;12.362;2023-09-19T00:40:47;18.40;73.30
6672;DHT22;3372;48.690;12.362;2023-09-19T00:43:12;18.40;73.40
6672;DHT22;3372;48.690;12.362;2023-09-19T00:45:43;18.40;74.00
6672;DHT22;3372;48.690;12.362;2023-09-19T00:48:09;18.40;73.30
6672;DHT22;3372;48.690;12.362;2023-09-19T00:50:35;18.40;73.60
6672;DHT22;3372;48.690;12.362;2023-09-19T00:53:01;18.40;72.80
6672;DHT22;3372;48.690;12.362;2023-09-19T00:55:34;18.40;72.80
6672;DHT22;3372;48.690;12.362;2023-09-19T00:58:00;18.40;72.70
6672;DHT22;3372;48.690;12.362;2023-09-19T01:00:26;18.50;72.40
6672;DHT22;3372;48.690;12.362;2023-09-19T01:02:52;18.40;72.40
6672;DHT22;3372;48.690;12.362;2023-09-19T01:05:18;18.40;72.10
6672;DHT22;3372;48.690;12.362;2023-09-19T01:07:44;18.40;72.70
6672;DHT22;3372;48.690;12.362;2023-09-19T01:10:14;18.40;72.20
6672;DHT22;3372;48.690;12.362;2023-09-19T01:13:01;18.50;72.40
6672;DHT22;3372;48.690;12.362;2023-09-19T01:15:41;18.30;73.20
6672;DHT22;3372;48.690;12.362;2023-09-19T01:18:12;18.40;72.90
6672;DHT22;3372;48.690;12.362;2023-09-19T01:20:53;18.40;72.80
6672;DHT22;3372;48.690;12.362;2023-09-19T01:31:40;18.40;74.00
6672;DHT22;3372;48.690;12.362;2023-09-19T01:34:08;18.40;72.90
6672;DHT22;3372;48.690;12.362;2023-09-19T01:36:37;18.40;72.70
6672;DHT22;3372;48.690;12.362;2023-09-19T01:39:09;18.40;72.30
6672;DHT22;3372;48.690;12.362;2023-09-19T01:44:24;18.40;73.90
6672;DHT22;3372;48.690;12.362;2023-09-19T01:46:52;18.30;74.30
6672;DHT22;3372;48.690;12.362;2023-09-19T01:49:37;18.30;73.60
6672;DHT22;3372;48.690;12.362;2023-09-19T01:52:13;18.30;74.80
6672;DHT22;3372;48.690;12.362;2023-09-19T01:54:50;18.30;74.40
6672;DHT22;3372;48.690;12.362;2023-09-19T01:57:29;18.30;74.90
6672;DHT22;3372;48.690;12.362;2023-09-19T02:00:05;18.30;74.80
6672;DHT22;3372;48.690;12.362;2023-09-19T02:02:37;18.30;74.50
6672;DHT22;3372;48.690;12.362;2023-09-19T02:05:04;18.40;74.20
6672;DHT22;3372;48.690;12.362;2023-09-19T02:07:30;18.40;73.80
6672;DHT22;3372;48.690;12.362;2023-09-19T02:10:00;18.40;74.50
6672;DHT22;3372;48.690;12.362;2023-09-19T02:12:29;18.40;73.40
6672;DHT22;3372;48.690;12.362;2023-09-19T02:14:58;18.30;73.70
6672;DHT22;3372;48.690;12.362;2023-09-19T02:17:25;18.30;73.80
6672;DHT22;3372;48.690;12.362;2023-09-19T02:19:56;18.40;73.70
6672;DHT22;3372;48.690;12.362;2023-09-19T02:22:22;18.30;73.60
6672;DHT22;3372;48.690;12.362;2023-09-19T02:24:48;18.30;73.80
6672;DHT22;3372;48.690;12.362;2023-09-19T02:27:14;18.30;74.10
6672;DHT22;3372;48.690;12.362;2023-09-19T02:29:42;18.30;74.30
6672;DHT22;3372;48.690;12.362;2023-09-19T02:32:07;18.30;74.70
6672;DHT22;3372;48.690;12.362;2023-09-19T02:34:35;18.30;75.00
6672;DHT22;3372;48.690;12.362;2023-09-19T02:37:04;18.30;74.70
6672;DHT22;3372;48.690;12.362;2023-09-19T02:39:34;18.40;75.40
6672;DHT22;3372;48.690;12.362;2023-09-19T02:41:59;18.40;73.40
6672;DHT22;3372;48.690;12.362;2023-09-19T02:44:25;18.40;72.90
6672;DHT22;3372;48.690;12.362;2023-09-19T02:46:51;18.40;73.10
6672;DHT22;3372;48.690;12.362;2023-09-19T02:49:16;18.40;73.20
6672;DHT22;3372;48.690;12.362;2023-09-19T02:51:44;18.40;72.80
6672;DHT22;3372;48.690;12.362;2023-09-19T02:54:10;18.40;72.50
6672;DHT22;3372;48.690;12.362;2023-09-19T02:56:36;18.40;72.70
6672;DHT22;3372;48.690;12.362;2023-09-19T02:59:02;18.50;72.60
6672;DHT22;3372;48.690;12.362;2023-09-19T03:01:28;18.40;73.30
6672;DHT22;3372;48.690;12.362;2023-09-19T03:03:54;18.50;72.20
6672;DHT22;3372;48.690;12.362;2023-09-19T03:06:20;18.40;72.70
6672;DHT22;3372;48.690;12.362;2023-09-19T03:08:47;18.40;72.80
6672;DHT22;3372;48.690;12.362;2023-09-19T03:11:14;18.40;74.20
6672;DHT22;3372;48.690;12.362;2023-09-19T03:13:40;18.40;73.90
6672;DHT22;3372;48.690;12.362;2023-09-19T03:16:08;18.40;73.40
6672;DHT22;3372;48.690;12.362;2023-09-19T03:18:37;18.40;73.10
6672;DHT22;3372;48.690;12.362;2023-09-19T03:21:02;18.40;73.00
6672;DHT22;3372;48.690;12.362;2023-09-19T03:23:28;18.40;73.70
6672;DHT22;3372;48.690;12.362;2023-09-19T03:25:55;18.40;73.20
6672;DHT22;3372;48.690;12.362;2023-09-19T03:28:21;18.40;73.70
6672;DHT22;3372;48.690;12.362;2023-09-19T03:31:05;18.40;73.40
6672;DHT22;3372;48.690;12.362;2023-09-19T03:33:31;18.40;73.40
6672;DHT22;3372;48.690;12.362;2023-09-19T03:35:58;18.40;73.40
6672;DHT22;3372;48.690;12.362;2023-09-19T03:38:25;18.30;73.30
6672;DHT22;3372;48.690;12.362;2023-09-19T03:40:52;18.40;72.60
6672;DHT22;3372;48.690;12.362;2023-09-19T03:43:17;18.40;73.00
6672;DHT22;3372;48.690;12.362;2023-09-19T03:45:43;18.40;73.90
6672;DHT22;3372;48.690;12.362;2023-09-19T03:48:10;18.30;73.20
6672;DHT22;3372;48.690;12.362;2023-09-19T03:50:36;18.30;72.60
6672;DHT22;3372;48.690;12.362;2023-09-19T03:53:02;18.40;72.30
6672;DHT22;3372;48.690;12.362;2023-09-19T03:55:28;18.30;72.70
6672;DHT22;3372;48.690;12.362;2023-09-19T03:57:55;18.30;72.50
6672;DHT22;3372;48.690;12.362;2023-09-19T04:00:22;18.40;71.90
6672;DHT22;3372;48.690;12.362;2023-09-19T04:02:51;18.30;71.50
6672;DHT22;3372;48.690;12.362;2023-09-19T04:05:17;18.30;71.20
6672;DHT22;3372;48.690;12.362;2023-09-19T04:07:42;18.30;71.00
6672;DHT22;3372;48.690;12.362;2023-09-19T04:10:08;18.40;71.30
6672;DHT22;3372;48.690;12.362;2023-09-19T04:12:37;18.30;70.70
6672;DHT22;3372;48.690;12.362;2023-09-19T04:15:06;18.30;70.30
6672;DHT22;3372;48.690;12.362;2023-09-19T04:17:32;18.10;70.90
6672;DHT22;3372;48.690;12.362;2023-09-19T04:20:01;18.20;70.30
6672;DHT22;3372;48.690;12.362;2023-09-19T04:22:27;18.10;71.00
6672;DHT22;3372;48.690;12.362;2023-09-19T04:24:52;18.10;69.50
6672;DHT22;3372;48.690;12.362;2023-09-19T04:27:18;18.10;69.50
6672;DHT22;3372;48.690;12.362;2023-09-19T04:29:44;18.10;69.40
6672;DHT22;3372;48.690;12.362;2023-09-19T04:32:10;18.10;68.90
6672;DHT22;3372;48.690;12.362;2023-09-19T04:34:36;18.20;68.60
6672;DHT22;3372;48.690;12.362;2023-09-19T04:37:03;18.20;67.80
6672;DHT22;3372;48.690;12.362;2023-09-19T04:39:29;18.10;67.70
6672;DHT22;3372;48.690;12.362;2023-09-19T04:41:55;18.20;67.80
6672;DHT22;3372;48.690;12.362;2023-09-19T04:44:20;18.20;67.80
6672;DHT22;3372;48.690;12.362;2023-09-19T04:46:47;18.20;67.80
6672;DHT22;3372;48.690;12.362;2023-09-19T04:49:12;18.30;67.90
6672;DHT22;3372;48.690;12.362;2023-09-19T04:51:39;18.30;67.90
6672;DHT22;3372;48.690;12.362;2023-09-19T04:54:05;18.30;69.40
6672;DHT22;3372;48.690;12.362;2023-09-19T04:56:32;18.30;69.80
6672;DHT22;3372;48.690;12.362;2023-09-19T04:58:58;18.30;70.00
6672;DHT22;3372;48.690;12.362;2023-09-19T05:01:24;18.30;70.00
6672;DHT22;3372;48.690;12.362;2023-09-19T05:03:50;18.30;70.20
6672;DHT22;3372;48.690;12.362;2023-09-19T05:06:19;18.30;69.90
6672;DHT22;3372;48.690;12.362;2023-09-19T05:08:48;18.30;69.50
6672;DHT22;3372;48.690;12.362;2023-09-19T05:11:18;18.30;69.10
6672;DHT22;3372;48.690;12.362;2023-09-19T05:13:44;18.30;69.10
6672;DHT22;3372;48.690;12.362;2023-09-19T05:16:10;18.30;69.20
6672;DHT22;3372;48.690;12.362;2023-09-19T05:18:36;18.30;69.10
6672;DHT22;3372;48.690;12.362;2023-09-19T05:21:04;18.40;69.10
6672;DHT22;3372;48.690;12.362;2023-09-19T05:23:30;18.30;68.70
6672;DHT22;3372;48.690;12.362;2023-09-19T05:25:56;18.30;68.50
6672;DHT22;3372;48.690;12.362;2023-09-19T05:28:25;18.30;69.10
6672;DHT22;3372;48.690;12.362;2023-09-19T05:30:51;18.40;68.80
6672;DHT22;3372;48.690;12.362;2023-09-19T05:33:16;18.40;69.00
6672;DHT22;3372;48.690;12.362;2023-09-19T05:35:44;18.40;69.10
6672;DHT22;3372;48.690;12.362;2023-09-19T05:38:11;18.40;69.20
6672;DHT22;3372;48.690;12.362;2023-09-19T05:40:38;18.50;69.40
6672;DHT22;3372;48.690;12.362;2023-09-19T05:43:06;18.40;69.90
6672;DHT22;3372;48.690;12.362;2023-09-19T05:45:31;18.40;69.90
6672;DHT22;3372;48.690;12.362;2023-09-19T05:48:10;18.40;70.80
6672;DHT22;3372;48.690;12.362;2023-09-19T05:50:39;18.40;71.20
6672;DHT22;3372;48.690;12.362;2023-09-19T05:53:05;18.40;71.00
6672;DHT22;3372;48.690;12.362;2023-09-19T05:55:32;18.40;72.70
6672;DHT22;3372;48.690;12.362;2023-09-19T05:57:58;18.40;72.20
6672;DHT22;3372;48.690;12.362;2023-09-19T06:00:24;18.40;72.90
6672;DHT22;3372;48.690;12.362;2023-09-19T06:02:55;18.50;72.40
6672;DHT22;3372;48.690;12.362;2023-09-19T06:05:24;18.50;73.00
6672;DHT22;3372;48.690;12.362;2023-09-19T06:07:52;18.50;72.60
6672;DHT22;3372;48.690;12.362;2023-09-19T06:10:18;18.50;73.20
6672;DHT22;3372;48.690;12.362;2023-09-19T06:12:46;18.50;72.90
6672;DHT22;3372;48.690;12.362;2023-09-19T06:15:15;18.60;74.50
6672;DHT22;3372;48.690;12.362;2023-09-19T06:17:43;18.60;73.60
6672;DHT22;3372;48.690;12.362;2023-09-19T06:20:11;18.60;75.20
6672;DHT22;3372;48.690;12.362;2023-09-19T06:22:41;18.40;75.20
6672;DHT22;3372;48.690;12.362;2023-09-19T06:25:08;18.30;77.30
6672;DHT22;3372;48.690;12.362;2023-09-19T06:27:37;18.40;78.80
6672;DHT22;3372;48.690;12.362;2023-09-19T06:30:03;18.10;79.10
6672;DHT22;3372;48.690;12.362;2023-09-19T06:32:28;18.10;81.80
6672;DHT22;3372;48.690;12.362;2023-09-19T06:34:54;18.30;80.90
6672;DHT22;3372;48.690;12.362;2023-09-19T06:37:21;18.30;81.10
6672;DHT22;3372;48.690;12.362;2023-09-19T06:39:47;18.40;81.50
6672;DHT22;3372;48.690;12.362;2023-09-19T06:42:15;18.50;82.00
6672;DHT22;3372;48.690;12.362;2023-09-19T06:44:42;18.40;81.30
6672;DHT22;3372;48.690;12.362;2023-09-19T06:47:08;19.00;80.50
6672;DHT22;3372;48.690;12.362;2023-09-19T06:49:36;19.60;77.30
6672;DHT22;3372;48.690;12.362;2023-09-19T06:52:01;20.20;72.60
6672;DHT22;3372;48.690;12.362;2023-09-19T06:54:28;20.50;69.90
6672;DHT22;3372;48.690;12.362;2023-09-19T06:56:59;21.00;67.70
6672;DHT22;3372;48.690;12.362;2023-09-19T06:59:25;20.70;64.40
6672;DHT22;3372;48.690;12.362;2023-09-19T07:01:51;21.30;64.50
6672;DHT22;3372;48.690;12.362;2023-09-19T07:04:16;21.40;60.70
6672;DHT22;3372;48.690;12.362;2023-09-19T07:06:44;21.50;61.20
6672;DHT22;3372;48.690;12.362;2023-09-19T07:09:15;21.90;59.60
6672;DHT22;3372;48.690;12.362;2023-09-19T07:11:41;21.50;55.80
6672;DHT22;3372;48.690;12.362;2023-09-19T07:14:06;22.10;59.30
6672;DHT22;3372;48.690;12.362;2023-09-19T07:16:32;21.80;53.30
6672;DHT22;3372;48.690;12.362;2023-09-19T07:18:57;22.20;55.60
6672;DHT22;3372;48.690;12.362;2023-09-19T07:21:24;22.20;51.50
6672;DHT22;3372;48.690;12.362;2023-09-19T07:23:49;22.30;51.00
6672;DHT22;3372;48.690;12.362;2023-09-19T07:26:16;21.60;47.20
6672;DHT22;3372;48.690;12.362;2023-09-19T07:28:42;22.10;52.50
6672;DHT22;3372;48.690;12.362;2023-09-19T07:31:07;21.90;46.30
6672;DHT22;3372;48.690;12.362;2023-09-19T07:33:35;21.80;51.10
6672;DHT22;3372;48.690;12.362;2023-09-19T07:36:01;21.40;52.40
6672;DHT22;3372;48.690;12.362;2023-09-19T07:38:27;21.30;53.00
6672;DHT22;3372;48.690;12.362;2023-09-19T07:40:53;21.10;52.30
6672;DHT22;3372;48.690;12.362;2023-09-19T07:43:18;20.80;54.40
6672;DHT22;3372;48.690;12.362;2023-09-19T07:45:44;20.50;55.20
6672;DHT22;3372;48.690;12.362;2023-09-19T07:48:09;20.50;57.10
6672;DHT22;3372;48.690;12.362;2023-09-19T07:50:40;20.50;56.60
6672;DHT22;3372;48.690;12.362;2023-09-19T07:53:08;20.40;57.90
6672;DHT22;3372;48.690;12.362;2023-09-19T07:55:34;20.40;58.40
6672;DHT22;3372;48.690;12.362;2023-09-19T07:57:59;21.30;62.40
6672;DHT22;3372;48.690;12.362;2023-09-19T08:00:26;21.70;52.80
6672;DHT22;3372;48.690;12.362;2023-09-19T08:02:51;22.20;53.10
6672;DHT22;3372;48.690;12.362;2023-09-19T08:05:17;22.20;46.40
6672;DHT22;3372;48.690;12.362;2023-09-19T08:07:46;22.30;49.50
6672;DHT22;3372;48.690;12.362;2023-09-19T08:10:15;22.30;45.20
6672;DHT22;3372;48.690;12.362;2023-09-19T08:12:42;21.90;43.40
6672;DHT22;3372;48.690;12.362;2023-09-19T08:15:19;21.70;47.10
6672;DHT22;3372;48.690;12.362;2023-09-19T08:17:48;21.40;47.60
6672;DHT22;3372;48.690;12.362;2023-09-19T08:20:14;21.50;49.90
6672;DHT22;3372;48.690;12.362;2023-09-19T08:22:51;21.60;51.10
6672;DHT22;3372;48.690;12.362;2023-09-19T08:25:21;21.80;50.30
6672;DHT22;3372;48.690;12.362;2023-09-19T08:27:48;22.00;48.00
6672;DHT22;3372;48.690;12.362;2023-09-19T08:30:19;21.90;49.10
6672;DHT22;3372;48.690;12.362;2023-09-19T08:32:58;21.90;48.00
6672;DHT22;3372;48.690;12.362;2023-09-19T08:35:24;21.80;47.00
6672;DHT22;3372;48.690;12.362;2023-09-19T08:37:49;21.60;47.80
6672;DHT22;3372;48.690;12.362;2023-09-19T08:40:16;21.40;45.90
6672;DHT22;3372;48.690;12.362;2023-09-19T08:42:49;21.60;47.60
6672;DHT22;3372;48.690;12.362;2023-09-19T08:45:15;21.50;45.20
6672;DHT22;3372;48.690;12.362;2023-09-19T08:48:31;21.70;47.70
6672;DHT22;3372;48.690;12.362;2023-09-19T08:50:35;22.20;45.10
6672;DHT22;3372;48.690;12.362;2023-09-19T08:53:02;22.60;44.40
6672;DHT22;3372;48.690;12.362;2023-09-19T08:55:32;22.40;39.10
6672;DHT22;3372;48.690;12.362;2023-09-19T08:58:03;22.40;39.80
6672;DHT22;3372;48.690;12.362;2023-09-19T09:00:32;22.60;41.30
6672;DHT22;3372;48.690;12.362;2023-09-19T09:02:59;23.10;39.00
6672;DHT22;3372;48.690;12.362;2023-09-19T09:05:27;23.00;39.90
6672;DHT22;3372;48.690;12.362;2023-09-19T09:07:54;22.90;41.30
6672;DHT22;3372;48.690;12.362;2023-09-19T09:10:22;22.50;38.10
6672;DHT22;3372;48.690;12.362;2023-09-19T09:12:52;22.30;40.60
6672;DHT22;3372;48.690;12.362;2023-09-19T09:15:22;22.00;39.40
6672;DHT22;3372;48.690;12.362;2023-09-19T09:17:50;21.70;36.90
6672;DHT22;3372;48.690;12.362;2023-09-19T09:20:19;21.80;38.90
6672;DHT22;3372;48.690;12.362;2023-09-19T09:22:55;21.30;40.30
6672;DHT22;3372;48.690;12.362;2023-09-19T09:25:23;21.20;40.80
6672;DHT22;3372;48.690;12.362;2023-09-19T09:28:09;21.50;39.90
6672;DHT22;3372;48.690;12.362;2023-09-19T09:30:36;21.70;41.50
6672;DHT22;3372;48.690;12.362;2023-09-19T09:33:12;21.90;41.30
6672;DHT22;3372;48.690;12.362;2023-09-19T09:35:57;22.00;42.90
6672;DHT22;3372;48.690;12.362;2023-09-19T09:38:25;22.10;38.90
6672;DHT22;3372;48.690;12.362;2023-09-19T09:40:54;22.10;39.40
6672;DHT22;3372;48.690;12.362;2023-09-19T09:43:39;22.00;37.50
6672;DHT22;3372;48.690;12.362;2023-09-19T09:46:19;22.00;38.70
6672;DHT22;3372;48.690;12.362;2023-09-19T09:49:03;22.10;39.40
6672;DHT22;3372;48.690;12.362;2023-09-19T09:51:44;22.10;38.80
6672;DHT22;3372;48.690;12.362;2023-09-19T09:54:23;22.20;35.80
6672;DHT22;3372;48.690;12.362;2023-09-19T09:56:57;22.10;36.70
6672;DHT22;3372;48.690;12.362;2023-09-19T09:59:55;22.10;37.90
6672;DHT22;3372;48.690;12.362;2023-09-19T10:02:30;22.00;36.80
6672;DHT22;3372;48.690;12.362;2023-09-19T10:05:15;22.00;37.30
6672;DHT22;3372;48.690;12.362;2023-09-19T10:07:53;22.10;38.10
6672;DHT22;3372;48.690;12.362;2023-09-19T10:10:40;22.00;37.60
6672;DHT22;3372;48.690;12.362;2023-09-19T10:13:10;21.80;35.00
6672;DHT22;3372;48.690;12.362;2023-09-19T10:15:46;21.60;37.30
6672;DHT22;3372;48.690;12.362;2023-09-19T10:18:24;21.60;35.40
6672;DHT22;3372;48.690;12.362;2023-09-19T10:20:51;21.20;41.90
6672;DHT22;3372;48.690;12.362;2023-09-19T10:23:18;21.00;45.60
6672;DHT22;3372;48.690;12.362;2023-09-19T10:25:55;21.00;47.00
6672;DHT22;3372;48.690;12.362;2023-09-19T10:28:22;20.90;51.40
6672;DHT22;3372;48.690;12.362;2023-09-19T10:30:49;20.70;50.50
6672;DHT22;3372;48.690;12.362;2023-09-19T10:33:22;20.70;52.50
6672;DHT22;3372;48.690;12.362;2023-09-19T10:35:51;20.50;53.50
6672;DHT22;3372;48.690;12.362;2023-09-19T10:38:18;20.30;54.70
6672;DHT22;3372;48.690;12.362;2023-09-19T10:40:49;20.50;56.10
6672;DHT22;3372;48.690;12.362;2023-09-19T10:43:17;20.60;54.30
6672;DHT22;3372;48.690;12.362;2023-09-19T10:45:50;20.50;53.10
6672;DHT22;3372;48.690;12.362;2023-09-19T10:48:18;20.30;53.30
6672;DHT22;3372;48.690;12.362;2023-09-19T10:50:50;20.30;54.10
6672;DHT22;3372;48.690;12.362;2023-09-19T10:53:17;20.50;53.40
6672;DHT22;3372;48.690;12.362;2023-09-19T10:55:53;20.70;52.90
6672;DHT22;3372;48.690;12.362;2023-09-19T10:58:30;20.70;50.80
6672;DHT22;3372;48.690;12.362;2023-09-19T11:01:00;20.30;50.00
6672;DHT22;3372;48.690;12.362;2023-09-19T11:03:38;20.40;51.20
6672;DHT22;3372;48.690;12.362;2023-09-19T11:06:18;20.30;50.50
6672;DHT22;3372;48.690;12.362;2023-09-19T11:09:01;19.80;51.10
6672;DHT22;3372;48.690;12.362;2023-09-19T11:11:43;19.90;52.00
6672;DHT22;3372;48.690;12.362;2023-09-19T11:30:48;19.90;52.30
6672;DHT22;3372;48.690;12.362;2023-09-19T11:49:13;20.00;45.30
6672;DHT22;3372;48.690;12.362;2023-09-19T11:51:45;20.30;44.00
6672;DHT22;3372;48.690;12.362;2023-09-19T11:54:13;20.50;42.40
6672;DHT22;3372;48.690;12.362;2023-09-19T11:56:54;20.40;38.80
6672;DHT22;3372;48.690;12.362;2023-09-19T11:59:21;20.40;38.20
6672;DHT22;3372;48.690;12.362;2023-09-19T12:02:16;20.40;39.70
6672;DHT22;3372;48.690;12.362;2023-09-19T12:04:46;20.50;36.50
6672;DHT22;3372;48.690;12.362;2023-09-19T12:07:15;20.60;38.20
6672;DHT22;3372;48.690;12.362;2023-09-19T12:09:46;20.60;35.40
6672;DHT22;3372;48.690;12.362;2023-09-19T12:12:23;20.70;34.30
6672;DHT22;3372;48.690;12.362;2023-09-19T12:14:53;20.70;35.10
6672;DHT22;3372;48.690;12.362;2023-09-19T12:17:19;20.80;34.90
6672;DHT22;3372;48.690;12.362;2023-09-19T12:19:52;21.00;35.10
6672;DHT22;3372;48.690;12.362;2023-09-19T12:22:18;21.00;34.30
6672;DHT22;3372;48.690;12.362;2023-09-19T12:24:46;21.00;35.00
6672;DHT22;3372;48.690;12.362;2023-09-19T12:27:12;20.90;35.40
6672;DHT22;3372;48.690;12.362;2023-09-19T12:29:57;20.80;34.10
6672;DHT22;3372;48.690;12.362;2023-09-19T12:32:35;20.90;35.00
6672;DHT22;3372;48.690;12.362;2023-09-19T12:35:01;21.00;35.10
6672;DHT22;3372;48.690;12.362;2023-09-19T12:37:32;21.20;34.50
6672;DHT22;3372;48.690;12.362;2023-09-19T12:40:08;21.10;34.40
6672;DHT22;3372;48.690;12.362;2023-09-19T12:42:47;21.10;33.40
6672;DHT22;3372;48.690;12.362;2023-09-19T12:45:13;20.90;33.70
6672;DHT22;3372;48.690;12.362;2023-09-19T12:47:40;21.00;34.50
6672;DHT22;3372;48.690;12.362;2023-09-19T12:50:26;20.90;36.20
6672;DHT22;3372;48.690;12.362;2023-09-19T12:52:55;21.00;35.50
6672;DHT22;3372;48.690;12.362;2023-09-19T12:55:25;21.10;36.20
6672;DHT22;3372;48.690;12.362;2023-09-19T12:58:12;21.20;37.20
6672;DHT22;3372;48.690;12.362;2023-09-19T13:00:43;21.30;37.00
6672;DHT22;3372;48.690;12.362;2023-09-19T13:03:18;21.30;34.60
6672;DHT22;3372;48.690;12.362;2023-09-19T13:06:01;21.30;34.90
6672;DHT22;3372;48.690;12.362;2023-09-19T13:08:40;21.40;34.20
6672;DHT22;3372;48.690;12.362;2023-09-19T13:11:11;21.50;33.40
6672;DHT22;3372;48.690;12.362;2023-09-19T13:13:50;21.60;33.60
6672;DHT22;3372;48.690;12.362;2023-09-19T13:16:20;21.30;31.10
6672;DHT22;3372;48.690;12.362;2023-09-19T13:18:53;21.30;32.50
6672;DHT22;3372;48.690;12.362;2023-09-19T13:21:33;21.50;32.20
6672;DHT22;3372;48.690;12.362;2023-09-19T13:24:23;21.40;31.00
6672;DHT22;3372;48.690;12.362;2023-09-19T13:26:51;21.10;31.70
6672;DHT22;3372;48.690;12.362;2023-09-19T13:29:16;21.30;32.40
6672;DHT22;3372;48.690;12.362;2023-09-19T13:31:51;21.20;32.50
6672;DHT22;3372;48.690;12.362;2023-09-19T13:34:19;21.10;30.90
6672;DHT22;3372;48.690;12.362;2023-09-19T13:36:45;21.30;33.40
6672;DHT22;3372;48.690;12.362;2023-09-19T13:39:18;21.40;32.40
6672;DHT22;3372;48.690;12.362;2023-09-19T13:41:47;21.50;32.70
6672;DHT22;3372;48.690;12.362;2023-09-19T13:44:13;21.60;32.90
6672;DHT22;3372;48.690;12.362;2023-09-19T13:46:39;21.40;31.60
6672;DHT22;3372;48.690;12.362;2023-09-19T13:49:06;21.60;32.30
6672;DHT22;3372;48.690;12.362;2023-09-19T13:51:32;21.60;30.60
6672;DHT22;3372;48.690;12.362;2023-09-19T13:53:58;21.50;33.30
6672;DHT22;3372;48.690;12.362;2023-09-19T13:56:25;21.60;33.20
6672;DHT22;3372;48.690;12.362;2023-09-19T13:58:53;21.70;32.60
6672;DHT22;3372;48.690;12.362;2023-09-19T14:01:19;21.80;33.40
6672;DHT22;3372;48.690;12.362;2023-09-19T14:03:45;22.00;32.60
6672;DHT22;3372;48.690;12.362;2023-09-19T14:06:12;22.00;29.70
6672;DHT22;3372;48.690;12.362;2023-09-19T14:08:38;22.20;31.50
6672;DHT22;3372;48.690;12.362;2023-09-19T14:11:10;22.40;30.90
6672;DHT22;3372;48.690;12.362;2023-09-19T14:13:36;22.50;30.60
6672;DHT22;3372;48.690;12.362;2023-09-19T14:16:05;22.40;29.50
6672;DHT22;3372;48.690;12.362;2023-09-19T14:18:32;22.30;29.80
6672;DHT22;3372;48.690;12.362;2023-09-19T14:20:58;22.20;29.80
6672;DHT22;3372;48.690;12.362;2023-09-19T14:23:23;22.10;30.00
6672;DHT22;3372;48.690;12.362;2023-09-19T14:25:50;22.00;31.00
6672;DHT22;3372;48.690;12.362;2023-09-19T14:28:18;21.70;28.00
6672;DHT22;3372;48.690;12.362;2023-09-19T14:30:43;21.80;30.00
6672;DHT22;3372;48.690;12.362;2023-09-19T14:33:09;21.80;30.10
6672;DHT22;3372;48.690;12.362;2023-09-19T14:35:37;21.80;30.20
6672;DHT22;3372;48.690;12.362;2023-09-19T14:38:03;21.90;31.10
6672;DHT22;3372;48.690;12.362;2023-09-19T14:40:29;21.90;30.30
6672;DHT22;3372;48.690;12.362;2023-09-19T14:42:54;21.90;29.90
6672;DHT22;3372;48.690;12.362;2023-09-19T14:45:20;21.90;31.60
6672;DHT22;3372;48.690;12.362;2023-09-19T14:47:46;21.90;31.60
6672;DHT22;3372;48.690;12.362;2023-09-19T14:50:12;22.00;30.90
6672;DHT22;3372;48.690;12.362;2023-09-19T14:52:38;22.20;30.70
6672;DHT22;3372;48.690;12.362;2023-09-19T14:55:06;22.20;29.20
6672;DHT22;3372;48.690;12.362;2023-09-19T14:57:32;22.30;28.80
6672;DHT22;3372;48.690;12.362;2023-09-19T14:59:58;22.30;28.80
6672;DHT22;3372;48.690;12.362;2023-09-19T15:02:24;22.40;29.20
6672;DHT22;3372;48.690;12.362;2023-09-19T15:04:50;22.50;29.70
6672;DHT22;3372;48.690;12.362;2023-09-19T15:07:16;22.60;29.00
6672;DHT22;3372;48.690;12.362;2023-09-19T15:09:43;22.50;29.10
6672;DHT22;3372;48.690;12.362;2023-09-19T15:12:09;22.40;28.60
6672;DHT22;3372;48.690;12.362;2023-09-19T15:14:36;22.20;27.80
6672;DHT22;3372;48.690;12.362;2023-09-19T15:17:02;22.20;28.30
6672;DHT22;3372;48.690;12.362;2023-09-19T15:19:30;22.30;27.20
6672;DHT22;3372;48.690;12.362;2023-09-19T15:21:55;22.10;25.20
6672;DHT22;3372;48.690;12.362;2023-09-19T15:24:23;22.00;26.50
6672;DHT22;3372;48.690;12.362;2023-09-19T15:26:52;22.10;28.20
6672;DHT22;3372;48.690;12.362;2023-09-19T15:29:17;22.10;27.70
6672;DHT22;3372;48.690;12.362;2023-09-19T15:31:45;22.20;24.80
6672;DHT22;3372;48.690;12.362;2023-09-19T15:34:10;22.00;26.70
6672;DHT22;3372;48.690;12.362;2023-09-19T15:36:39;22.10;27.30
6672;DHT22;3372;48.690;12.362;2023-09-19T15:39:06;22.20;27.10
6672;DHT22;3372;48.690;12.362;2023-09-19T15:41:34;22.20;25.60
6672;DHT22;3372;48.690;12.362;2023-09-19T15:44:01;22.10;27.40
6672;DHT22;3372;48.690;12.362;2023-09-19T15:46:32;22.10;26.80
6672;DHT22;3372;48.690;12.362;2023-09-19T15:49:02;22.20;27.50
6672;DHT22;3372;48.690;12.362;2023-09-19T15:51:28;22.20;27.80
6672;DHT22;3372;48.690;12.362;2023-09-19T15:53:55;22.30;27.70
6672;DHT22;3372;48.690;12.362;2023-09-19T15:56:23;22.40;28.30
6672;DHT22;3372;48.690;12.362;2023-09-19T15:58:53;22.40;27.00
6672;DHT22;3372;48.690;12.362;2023-09-19T16:01:22;22.40;28.00
6672;DHT22;3372;48.690;12.362;2023-09-19T16:03:52;22.50;28.40
6672;DHT22;3372;48.690;12.362;2023-09-19T16:06:21;22.20;26.90
6672;DHT22;3372;48.690;12.362;2023-09-19T16:08:50;22.30;28.60
6672;DHT22;3372;48.690;12.362;2023-09-19T16:11:16;22.30;28.40
6672;DHT22;3372;48.690;12.362;2023-09-19T16:13:44;22.30;29.10
6672;DHT22;3372;48.690;12.362;2023-09-19T16:16:12;22.30;28.50
6672;DHT22;3372;48.690;12.362;2023-09-19T16:18:47;22.30;28.50
6672;DHT22;3372;48.690;12.362;2023-09-19T16:21:13;22.10;26.80
6672;DHT22;3372;48.690;12.362;2023-09-19T16:23:45;22.10;27.20
6672;DHT22;3372;48.690;12.362;2023-09-19T16:26:10;22.20;28.30
6672;DHT22;3372;48.690;12.362;2023-09-19T16:28:39;22.00;27.80
6672;DHT22;3372;48.690;12.362;2023-09-19T16:31:05;22.10;28.20
6672;DHT22;3372;48.690;12.362;2023-09-19T16:33:32;21.90;27.70
6672;DHT22;3372;48.690;12.362;2023-09-19T16:35:58;22.00;28.60
6672;DHT22;3372;48.690;12.362;2023-09-19T16:38:25;22.00;29.00
6672;DHT22;3372;48.690;12.362;2023-09-19T16:40:57;21.90;29.40
6672;DHT22;3372;48.690;12.362;2023-09-19T16:43:27;21.90;30.00